Time;durP1;ratioP1;P1;durP2;ratioP2;P2;SDS_P1;SDS_P2;PMS_P1;PMS_P2;Temp;Humidity;BMP_temperature;BMP_pressure;BME280_temperature;BME280_humidity;BME280_pressure;Samples;Min_cycle;Max_cycle;Signal;HPM_P1;HPM_P2
2023/03/28 00:02:06;;;;;;;11.57;6.03;;;0.30;99.90;;;;;;5083951;28;20597;-54
2023/03/28 00:04:36;;;;;;;11.80;6.30;;;0.30;99.90;;;;;;5084326;28;20200;-53
2023/03/28 00:07:07;;;;;;;10.90;6.00;;;0.30;99.90;;;;;;5091230;28;20195;-53
2023/03/28 00:09:36;;;;;;;13.13;6.30;;;0.30;99.90;;;;;;5092034;28;20211;-52
2023/03/28 00:12:05;;;;;;;15.23;6.53;;;0.30;99.90;;;;;;5085078;28;20211;-52
2023/03/28 00:14:34;;;;;;;11.33;6.43;;;0.30;99.90;;;;;;5087448;28;20215;-55
2023/03/28 00:17:06;;;;;;;13.93;6.40;;;0.30;99.90;;;;;;5090426;28;20211;-54
2023/03/28 00:19:39;;;;;;;11.37;6.27;;;0.20;99.90;;;;;;5089675;28;20288;-53
2023/03/28 00:22:10;;;;;;;12.07;6.40;;;0.20;99.90;;;;;;5093363;28;20195;-52
2023/03/28 00:24:38;;;;;;;11.40;6.77;;;0.10;99.90;;;;;;5092699;28;20211;-54
2023/03/28 00:27:07;;;;;;;15.90;6.10;;;0.00;99.90;;;;;;5092553;28;20226;-53
2023/03/28 00:29:36;;;;;;;12.03;6.20;;;-0.10;99.90;;;;;;5088909;28;20734;-54
2023/03/28 00:32:04;;;;;;;15.17;6.30;;;-0.10;99.90;;;;;;5086391;28;20219;-52
2023/03/28 00:34:33;;;;;;;21.97;6.53;;;-0.10;99.90;;;;;;5084987;28;20176;-52
2023/03/28 00:37:02;;;;;;;17.13;7.33;;;-0.10;99.90;;;;;;5086210;28;20241;-52
2023/03/28 00:39:33;;;;;;;12.50;7.57;;;-0.20;99.90;;;;;;5090039;28;20211;-51
2023/03/28 00:42:02;;;;;;;14.47;6.90;;;-0.20;99.90;;;;;;5089546;28;20739;-53
2023/03/28 00:44:49;;;;;;;16.23;6.43;;;-0.20;99.90;;;;;;5081809;28;20697;-55
2023/03/28 00:47:37;;;;;;;10.20;6.60;;;-0.30;99.90;;;;;;5071480;28;20279;-52
2023/03/28 00:50:09;;;;;;;12.27;6.47;;;-0.30;99.90;;;;;;5066445;28;20219;-54
2023/03/28 00:52:41;;;;;;;14.50;7.20;;;-0.30;99.90;;;;;;5070493;28;20196;-53
2023/03/28 00:55:16;;;;;;;10.57;6.40;;;-0.30;99.90;;;;;;5071169;28;20250;-53
2023/03/28 00:57:47;;;;;;;12.37;6.73;;;-0.30;99.90;;;;;;5064878;28;20212;-52
2023/03/28 01:00:17;;;;;;;9.33;5.93;;;-0.30;99.90;;;;;;5068613;28;20216;-54
2023/03/28 01:02:51;;;;;;;15.57;6.40;;;-0.40;99.90;;;;;;5059309;28;20306;-51
2023/03/28 01:05:24;;;;;;;17.60;6.83;;;-0.40;99.90;;;;;;5069651;28;20224;-54
2023/03/28 01:07:57;;;;;;;14.23;6.63;;;-0.50;99.90;;;;;;5067636;28;20632;-53
2023/03/28 01:10:27;;;;;;;11.37;6.70;;;-0.50;99.90;;;;;;5070189;28;20261;-53
2023/03/28 01:12:57;;;;;;;10.17;6.47;;;-0.50;99.90;;;;;;5069852;28;20196;-51
2023/03/28 01:15:28;;;;;;;15.17;6.43;;;-0.60;99.90;;;;;;5068130;28;20223;-53
2023/03/28 01:18:02;;;;;;;10.93;6.30;;;-0.60;99.90;;;;;;5072547;28;20316;-54
2023/03/28 01:20:57;;;;;;;8.77;6.13;;;-0.60;99.90;;;;;;5067462;28;20232;-53
2023/03/28 01:23:47;;;;;;;9.70;5.67;;;-0.60;99.90;;;;;;5069781;28;20223;-51
2023/03/28 01:26:36;;;;;;;13.07;5.37;;;-0.70;99.90;;;;;;5076029;28;20207;-52
2023/03/28 01:29:40;;;;;;;17.20;5.97;;;-0.70;99.90;;;;;;5061383;28;20295;-54
2023/03/28 01:32:42;;;;;;;17.90;5.70;;;-0.70;99.90;;;;;;5058664;28;20215;-54
2023/03/28 01:35:35;;;;;;;10.80;5.40;;;-0.70;99.90;;;;;;5056007;28;20208;-53
2023/03/28 01:38:14;;;;;;;11.73;5.50;;;-0.70;99.90;;;;;;5055334;28;20779;-54
2023/03/28 01:40:47;;;;;;;17.93;6.80;;;-0.70;99.90;;;;;;5068821;28;20308;-54
2023/03/28 01:43:27;;;;;;;10.10;5.93;;;-0.70;99.90;;;;;;5071274;28;20204;-54
2023/03/28 01:46:01;;;;;;;12.00;5.43;;;-0.70;99.90;;;;;;5069744;28;20231;-54
2023/03/28 01:48:38;;;;;;;9.90;5.27;;;-0.70;99.90;;;;;;5070563;28;20594;-53
2023/03/28 01:51:15;;;;;;;7.50;5.13;;;-0.60;99.90;;;;;;5067834;28;20285;-53
2023/03/28 01:53:47;;;;;;;12.07;5.40;;;-0.60;99.90;;;;;;5070946;28;20777;-53
2023/03/28 01:56:22;;;;;;;16.27;5.40;;;-0.60;99.90;;;;;;5067604;28;20216;-54
2023/03/28 01:58:58;;;;;;;10.07;5.77;;;-0.60;99.90;;;;;;5066343;28;20231;-52
2023/03/28 02:01:35;;;;;;;9.50;5.60;;;-0.60;99.90;;;;;;5069246;28;20191;-55
2023/03/28 02:04:07;;;;;;;10.03;5.47;;;-0.60;99.90;;;;;;5088411;28;20700;-52
2023/03/28 02:06:51;;;;;;;13.17;5.47;;;-0.60;99.90;;;;;;5068646;28;20247;-54
2023/03/28 02:09:25;;;;;;;9.87;5.83;;;-0.60;99.90;;;;;;5069931;28;20222;-53
2023/03/28 02:11:59;;;;;;;8.90;6.00;;;-0.70;99.90;;;;;;5069382;28;20256;-54
2023/03/28 02:14:32;;;;;;;10.30;6.40;;;-0.70;99.90;;;;;;5075713;28;20635;-54
2023/03/28 02:17:08;;;;;;;10.57;6.57;;;-0.70;99.90;;;;;;5065944;28;20724;-53
2023/03/28 02:19:38;;;;;;;11.83;7.07;;;-0.70;99.90;;;;;;5069829;28;20223;-52
2023/03/28 02:22:14;;;;;;;19.43;7.47;;;-0.70;99.90;;;;;;5064946;28;20696;-54
2023/03/28 02:24:49;;;;;;;16.23;7.20;;;-0.70;99.90;;;;;;5068763;28;20234;-52
2023/03/28 02:27:19;;;;;;;12.67;7.30;;;-0.70;99.90;;;;;;5069004;28;20225;-53
2023/03/28 02:29:49;;;;;;;12.73;6.90;;;-0.80;99.90;;;;;;5071613;28;20585;-54
2023/03/28 02:32:20;;;;;;;13.77;7.47;;;-0.80;99.90;;;;;;5072088;28;20230;-54
2023/03/28 02:34:51;;;;;;;17.80;7.40;;;-0.80;99.90;;;;;;5069121;28;21360;-54
2023/03/28 02:37:30;;;;;;;14.87;7.63;;;-0.80;99.90;;;;;;5069839;28;20238;-53
2023/03/28 02:40:11;;;;;;;11.90;8.13;;;-0.80;99.90;;;;;;5070471;28;20578;-54
2023/03/28 02:43:19;;;;;;;15.27;7.57;;;-0.90;99.90;;;;;;5088757;28;20215;-54
2023/03/28 02:46:05;;;;;;;14.00;7.60;;;-0.90;99.90;;;;;;5085295;28;20648;-50
2023/03/28 02:49:00;;;;;;;19.60;7.87;;;-0.90;99.90;;;;;;5089612;28;20317;-54
2023/03/28 02:51:33;;;;;;;12.97;7.83;;;-0.90;99.90;;;;;;5077625;28;20648;-51
2023/03/28 02:54:19;;;;;;;16.47;7.43;;;-1.00;99.90;;;;;;5088296;28;20215;-54
2023/03/28 02:57:00;;;;;;;17.33;7.27;;;-1.00;99.90;;;;;;5089061;28;20211;-53
2023/03/28 02:59:34;;;;;;;16.57;7.40;;;-1.00;99.90;;;;;;5079014;28;20215;-54
2023/03/28 03:02:04;;;;;;;16.13;7.97;;;-1.00;99.90;;;;;;5087086;28;20215;-52
2023/03/28 03:04:32;;;;;;;14.03;7.77;;;-1.00;99.90;;;;;;5088991;28;20227;-51
2023/03/28 03:07:01;;;;;;;14.27;7.87;;;-1.00;99.90;;;;;;5099078;28;20249;-52
2023/03/28 03:09:30;;;;;;;18.57;8.63;;;-1.00;99.90;;;;;;5086180;28;20211;-54
2023/03/28 03:11:59;;;;;;;12.77;7.60;;;-0.90;99.90;;;;;;5078695;28;20690;-55
2023/03/28 03:14:27;;;;;;;12.70;8.43;;;-0.90;99.90;;;;;;5067721;28;20259;-54
2023/03/28 03:16:56;;;;;;;14.07;8.33;;;-0.90;99.90;;;;;;5074012;28;20216;-55
2023/03/28 03:19:24;;;;;;;11.53;7.80;;;-0.90;99.90;;;;;;5065907;28;20223;-52
2023/03/28 03:21:52;;;;;;;19.67;8.57;;;-0.90;99.90;;;;;;5073541;28;20289;-55
2023/03/28 03:24:21;;;;;;;24.70;9.13;;;-0.90;99.90;;;;;;5071492;28;20212;-56
2023/03/28 03:26:49;;;;;;;17.30;8.50;;;-0.90;99.90;;;;;;5083133;28;20223;-54
2023/03/28 03:29:19;;;;;;;15.60;7.77;;;-0.90;99.90;;;;;;5086093;28;20215;-54
2023/03/28 03:31:47;;;;;;;15.27;8.50;;;-0.90;99.90;;;;;;5094083;28;20183;-53
2023/03/28 03:34:15;;;;;;;15.83;8.50;;;-0.90;99.90;;;;;;5094555;28;20542;-55
2023/03/28 03:36:45;;;;;;;16.93;7.53;;;-0.90;99.90;;;;;;5088268;27;20551;-55
2023/03/28 03:39:13;;;;;;;19.63;8.33;;;-0.90;99.90;;;;;;5091153;27;20211;-55
2023/03/28 03:41:41;;;;;;;15.73;8.70;;;-1.00;99.90;;;;;;5084447;28;20224;-52
2023/03/28 03:44:09;;;;;;;15.53;8.00;;;-1.00;99.90;;;;;;5069647;28;20562;-55
2023/03/28 03:46:40;;;;;;;14.83;7.67;;;-1.10;99.90;;;;;;5066266;28;20221;-54
2023/03/28 03:49:09;;;;;;;16.23;8.93;;;-1.10;99.90;;;;;;5070924;28;20184;-53
2023/03/28 03:51:38;;;;;;;20.57;9.37;;;-1.10;99.90;;;;;;5090005;28;20215;-53
2023/03/28 03:54:06;;;;;;;16.03;8.40;;;-1.20;99.90;;;;;;5080152;28;20215;-53
2023/03/28 03:56:35;;;;;;;16.73;8.23;;;-1.20;99.90;;;;;;5080610;28;20261;-55
2023/03/28 03:59:03;;;;;;;17.33;8.47;;;-1.20;99.90;;;;;;5069136;28;20228;-53
2023/03/28 04:01:33;;;;;;;17.80;8.57;;;-1.20;99.90;;;;;;5068080;28;20189;-53
2023/03/28 04:04:02;;;;;;;19.13;8.53;;;-1.10;99.90;;;;;;5069213;28;20196;-54
2023/03/28 04:06:30;;;;;;;18.17;8.20;;;-1.10;99.90;;;;;;5062569;28;20224;-51
2023/03/28 04:08:59;;;;;;;15.50;9.00;;;-1.10;99.90;;;;;;5070220;28;20254;-54
2023/03/28 04:11:27;;;;;;;21.53;9.33;;;-1.10;99.90;;;;;;5067281;28;20246;-50
2023/03/28 04:13:55;;;;;;;16.77;8.87;;;-1.20;99.90;;;;;;5070866;28;20266;-55
2023/03/28 04:16:24;;;;;;;16.63;8.60;;;-1.20;99.90;;;;;;5073852;28;20597;-53
2023/03/28 04:18:53;;;;;;;19.00;9.23;;;-1.20;99.90;;;;;;5070667;28;20227;-55
2023/03/28 04:21:27;;;;;;;17.30;8.53;;;-1.20;99.90;;;;;;5071972;28;20667;-52
2023/03/28 04:23:56;;;;;;;19.40;9.20;;;-1.20;99.90;;;;;;5069490;28;20253;-53
2023/03/28 04:26:25;;;;;;;23.07;8.83;;;-1.20;99.90;;;;;;5072249;28;20219;-52
2023/03/28 04:28:54;;;;;;;23.43;9.50;;;-1.20;99.90;;;;;;5073287;28;20220;-53
2023/03/28 04:31:28;;;;;;;17.50;9.57;;;-1.20;99.90;;;;;;5072170;28;20192;-53
2023/03/28 04:33:59;;;;;;;21.93;10.03;;;-1.20;99.90;;;;;;5091612;28;20215;-52
2023/03/28 04:36:29;;;;;;;20.27;9.20;;;-1.10;99.90;;;;;;5096298;28;20211;-53
2023/03/28 04:39:00;;;;;;;20.90;9.17;;;-1.10;99.90;;;;;;5093501;28;20235;-53
2023/03/28 04:41:30;;;;;;;18.20;9.47;;;-1.20;99.90;;;;;;5090886;28;20337;-52
2023/03/28 04:43:59;;;;;;;22.83;10.40;;;-1.10;99.90;;;;;;5088868;28;20689;-53
2023/03/28 04:46:28;;;;;;;20.07;10.70;;;-1.20;99.90;;;;;;5099881;28;20199;-53
2023/03/28 04:48:57;;;;;;;25.37;10.53;;;-1.20;99.90;;;;;;5070816;28;20230;-54
2023/03/28 04:51:27;;;;;;;19.83;10.57;;;-1.20;99.90;;;;;;5087858;28;20255;-52
2023/03/28 04:53:56;;;;;;;26.13;10.97;;;-1.20;99.90;;;;;;5089100;28;20215;-52
2023/03/28 04:56:25;;;;;;;22.50;10.30;;;-1.20;99.90;;;;;;5086958;28;20694;-49
2023/03/28 04:58:54;;;;;;;22.47;10.87;;;-1.20;99.90;;;;;;5081749;28;20276;-53
2023/03/28 05:01:24;;;;;;;19.20;10.20;;;-1.20;99.90;;;;;;5090298;28;20195;-52
2023/03/28 05:03:54;;;;;;;26.90;10.50;;;-1.20;99.90;;;;;;5089749;28;20265;-50
2023/03/28 05:06:24;;;;;;;20.53;10.13;;;-1.30;99.90;;;;;;5089745;28;20273;-50
2023/03/28 05:08:52;;;;;;;27.57;12.53;;;-1.30;99.90;;;;;;5091298;28;20321;-50
2023/03/28 05:11:22;;;;;;;22.80;13.00;;;-1.30;99.90;;;;;;5087388;28;20222;-53
2023/03/28 05:13:50;;;;;;;30.63;13.87;;;-1.30;99.90;;;;;;5081471;28;20232;-51
2023/03/28 05:16:19;;;;;;;20.90;11.90;;;-1.20;99.90;;;;;;5083528;28;20200;-54
2023/03/28 05:18:47;;;;;;;30.00;11.00;;;-1.20;99.90;;;;;;5089664;28;20228;-54
2023/03/28 05:21:15;;;;;;;29.43;11.60;;;-1.10;99.90;;;;;;5091793;28;20215;-53
2023/03/28 05:23:44;;;;;;;23.13;11.63;;;-1.10;99.90;;;;;;5094492;28;20288;-51
2023/03/28 05:26:19;;;;;;;24.67;12.00;;;-1.10;99.90;;;;;;5086652;28;20221;-53
2023/03/28 05:28:49;;;;;;;21.13;10.97;;;-1.10;99.90;;;;;;5092497;28;20191;-53
2023/03/28 05:31:18;;;;;;;25.90;11.63;;;-1.00;99.90;;;;;;5090768;28;20183;-52
2023/03/28 05:33:46;;;;;;;22.23;10.87;;;-1.00;99.90;;;;;;5093143;28;20764;-53
2023/03/28 05:36:14;;;;;;;27.00;12.87;;;-0.90;99.90;;;;;;5096613;28;20215;-53
2023/03/28 05:38:42;;;;;;;21.53;12.03;;;-0.90;99.90;;;;;;5092833;28;20649;-54
2023/03/28 05:41:10;;;;;;;20.20;11.87;;;-0.90;99.90;;;;;;5081912;28;20227;-53
2023/03/28 05:43:39;;;;;;;22.13;11.97;;;-0.80;99.90;;;;;;5089799;28;20233;-52
2023/03/28 05:46:08;;;;;;;24.37;12.90;;;-0.80;99.90;;;;;;5085587;28;20254;-52
2023/03/28 05:48:36;;;;;;;25.67;12.53;;;-0.80;99.90;;;;;;5090420;28;20215;-49
2023/03/28 05:51:05;;;;;;;48.57;17.80;;;-0.70;99.90;;;;;;5087327;28;20277;-52
2023/03/28 05:53:33;;;;;;;38.00;15.03;;;-0.60;99.90;;;;;;5086049;28;20272;-53
2023/03/28 05:56:01;;;;;;;35.90;14.37;;;-0.60;99.90;;;;;;5088014;28;20219;-53
2023/03/28 05:58:30;;;;;;;47.37;18.43;;;-0.40;99.90;;;;;;5083269;28;20206;-57
2023/03/28 06:01:00;;;;;;;52.83;17.40;;;-0.40;99.90;;;;;;5086253;28;20203;-52
2023/03/28 06:03:31;;;;;;;53.70;21.70;;;-0.30;99.90;;;;;;5086406;28;20222;-52
2023/03/28 06:06:00;;;;;;;29.13;14.63;;;-0.20;99.90;;;;;;5090958;28;20257;-54
2023/03/28 06:08:28;;;;;;;31.03;13.73;;;-0.10;99.90;;;;;;5085762;28;20634;-52
2023/03/28 06:11:01;;;;;;;26.07;11.10;;;0.00;99.90;;;;;;5079645;28;20693;-51
2023/03/28 06:13:29;;;;;;;22.60;10.37;;;0.10;99.90;;;;;;5088853;28;20202;-51
2023/03/28 06:15:58;;;;;;;25.47;11.23;;;0.20;99.90;;;;;;5080718;28;20199;-53
2023/03/28 06:18:26;;;;;;;27.37;13.00;;;0.30;99.90;;;;;;5083007;28;20215;-53
2023/03/28 06:20:56;;;;;;;27.17;11.20;;;0.40;99.90;;;;;;5083504;28;20215;-54
2023/03/28 06:23:24;;;;;;;26.80;12.57;;;0.40;99.90;;;;;;5086765;28;20218;-54
2023/03/28 06:25:53;;;;;;;26.60;13.03;;;0.60;99.90;;;;;;5080646;28;20805;-53
2023/03/28 06:28:21;;;;;;;22.30;9.87;;;0.60;99.90;;;;;;5077819;28;20215;-51
2023/03/28 06:30:50;;;;;;;20.60;9.50;;;0.80;99.90;;;;;;5076972;28;20212;-54
2023/03/28 06:33:19;;;;;;;21.97;9.40;;;0.80;99.90;;;;;;5088359;28;20211;-52
2023/03/28 06:35:47;;;;;;;22.33;9.00;;;0.90;99.90;;;;;;5092196;28;20218;-54
2023/03/28 06:38:17;;;;;;;22.93;9.27;;;1.00;99.90;;;;;;5083872;28;20299;-53
2023/03/28 06:40:45;;;;;;;24.43;8.53;;;1.00;99.90;;;;;;5086741;28;20218;-53
2023/03/28 06:43:13;;;;;;;19.20;8.97;;;1.10;99.90;;;;;;5088737;28;20268;-51
2023/03/28 06:45:42;;;;;;;15.33;8.00;;;1.10;99.90;;;;;;5084526;28;20223;-52
2023/03/28 06:48:10;;;;;;;19.63;7.93;;;1.10;99.90;;;;;;5094749;28;20219;-54
2023/03/28 06:50:38;;;;;;;24.50;8.33;;;1.20;99.90;;;;;;5092532;28;20211;-53
2023/03/28 06:53:06;;;;;;;20.03;8.77;;;1.30;99.90;;;;;;5092129;28;20615;-53
2023/03/28 06:55:36;;;;;;;16.87;8.30;;;1.40;99.90;;;;;;5095816;28;20204;-51
2023/03/28 06:58:05;;;;;;;17.10;8.10;;;1.60;99.90;;;;;;5086716;28;20248;-52
2023/03/28 07:00:33;;;;;;;16.80;8.70;;;1.70;99.90;;;;;;5089443;28;20924;-54
2023/03/28 07:03:02;;;;;;;13.73;7.73;;;1.70;99.90;;;;;;5087509;28;20226;-54
2023/03/28 07:05:30;;;;;;;19.23;8.37;;;1.90;99.90;;;;;;5083528;28;20219;-54
2023/03/28 07:07:59;;;;;;;16.17;7.90;;;1.90;99.90;;;;;;5089172;28;20235;-53
2023/03/28 07:10:27;;;;;;;23.03;8.17;;;2.00;99.90;;;;;;5093882;28;20696;-49
2023/03/28 07:12:56;;;;;;;15.50;7.87;;;2.10;99.90;;;;;;5063579;28;20231;-54
2023/03/28 07:15:25;;;;;;;13.47;7.47;;;2.10;99.90;;;;;;5069808;28;20215;-54
2023/03/28 07:17:53;;;;;;;15.00;8.00;;;2.10;99.90;;;;;;5071723;28;20223;-54
2023/03/28 07:20:22;;;;;;;16.27;7.40;;;2.20;99.90;;;;;;5075103;28;20227;-52
2023/03/28 07:22:51;;;;;;;11.23;7.33;;;2.30;99.90;;;;;;5061106;28;20292;-55
2023/03/28 07:25:19;;;;;;;18.00;7.03;;;2.30;99.90;;;;;;5072291;28;20188;-54
2023/03/28 07:27:47;;;;;;;17.60;7.50;;;2.30;99.90;;;;;;5064760;28;20216;-54
2023/03/28 07:30:17;;;;;;;13.93;7.93;;;2.40;99.90;;;;;;5067067;28;20216;-52
2023/03/28 07:32:45;;;;;;;17.93;8.30;;;2.40;99.90;;;;;;5063956;28;20287;-54
2023/03/28 07:35:27;;;;;;;16.07;7.57;;;2.50;99.90;;;;;;5070357;28;20265;-52
2023/03/28 07:37:55;;;;;;;16.43;7.47;;;2.60;99.90;;;;;;5062274;28;20223;-54
2023/03/28 07:40:23;;;;;;;13.80;7.20;;;2.60;99.90;;;;;;5065760;28;20293;-55
2023/03/28 07:42:51;;;;;;;16.97;7.27;;;2.70;99.90;;;;;;5064883;28;20221;-54
2023/03/28 07:45:21;;;;;;;14.00;7.20;;;2.80;99.90;;;;;;5063716;28;20750;-55
2023/03/28 07:47:49;;;;;;;16.10;7.17;;;2.90;99.90;;;;;;5066649;28;20220;-54
2023/03/28 07:50:18;;;;;;;16.50;6.97;;;3.00;99.90;;;;;;5065916;28;20634;-53
2023/03/28 07:52:49;;;;;;;17.53;6.87;;;3.10;99.90;;;;;;5067756;28;20564;-54
2023/03/28 07:55:17;;;;;;;20.10;6.93;;;3.30;99.90;;;;;;5071833;28;20185;-54
2023/03/28 07:57:45;;;;;;;18.57;6.97;;;3.40;99.90;;;;;;5071315;28;20722;-53
2023/03/28 08:00:16;;;;;;;17.00;6.73;;;3.50;99.90;;;;;;5071359;28;20223;-55
2023/03/28 08:02:45;;;;;;;16.10;6.70;;;3.50;99.90;;;;;;5071319;28;20866;-54
2023/03/28 08:05:14;;;;;;;13.30;6.90;;;3.70;99.90;;;;;;5073519;28;20258;-55
2023/03/28 08:07:44;;;;;;;13.87;6.37;;;3.80;99.90;;;;;;5072013;28;20212;-54
2023/03/28 08:10:13;;;;;;;15.57;6.10;;;3.90;99.90;;;;;;5071622;28;20266;-54
2023/03/28 08:12:42;;;;;;;13.77;5.97;;;4.00;99.90;;;;;;5070614;28;20262;-56
2023/03/28 08:15:11;;;;;;;17.10;6.50;;;4.00;99.90;;;;;;5070427;28;20224;-54
2023/03/28 08:17:39;;;;;;;15.73;6.33;;;4.10;99.90;;;;;;5065148;28;20302;-55
2023/03/28 08:20:10;;;;;;;15.33;5.77;;;4.10;99.90;;;;;;5071145;28;20227;-52
2023/03/28 08:22:38;;;;;;;17.97;6.57;;;4.20;99.90;;;;;;5070586;28;20206;-53
2023/03/28 08:25:10;;;;;;;15.10;6.53;;;4.40;99.90;;;;;;5067810;28;20227;-54
2023/03/28 08:27:38;;;;;;;17.37;5.53;;;4.60;99.90;;;;;;5072633;28;20232;-55
2023/03/28 08:30:07;;;;;;;14.50;6.13;;;4.70;99.90;;;;;;5071729;28;20219;-53
2023/03/28 08:32:35;;;;;;;13.57;5.63;;;4.80;99.90;;;;;;5059925;28;20212;-55
2023/03/28 08:35:05;;;;;;;15.43;5.70;;;4.80;99.90;;;;;;5067655;28;20227;-54
2023/03/28 08:37:36;;;;;;;11.60;5.70;;;4.90;99.90;;;;;;5065624;28;20227;-54
2023/03/28 08:40:09;;;;;;;14.23;5.20;;;5.30;99.90;;;;;;5065748;28;20228;-56
2023/03/28 08:42:57;;;;;;;13.90;5.13;;;6.10;99.90;;;;;;5067586;28;20220;-55
2023/03/28 08:45:34;;;;;;;10.77;4.73;;;6.80;99.90;;;;;;5071285;28;20220;-55
2023/03/28 08:48:17;;;;;;;18.77;4.50;;;7.10;99.90;;;;;;5064392;28;20600;-53
2023/03/28 08:50:50;;;;;;;11.43;4.47;;;7.70;99.90;;;;;;5062550;28;20220;-56
2023/03/28 08:53:26;;;;;;;12.80;5.03;;;7.70;99.90;;;;;;5068867;28;20632;-54
2023/03/28 08:55:56;;;;;;;7.63;4.37;;;7.50;99.90;;;;;;5063704;28;20220;-54
2023/03/28 08:58:33;;;;;;;13.93;5.43;;;7.60;99.90;;;;;;5071594;28;20188;-56
2023/03/28 09:01:03;;;;;;;11.20;4.23;;;7.80;99.90;;;;;;5064773;28;20219;-54
2023/03/28 09:03:35;;;;;;;14.10;4.60;;;7.70;99.90;;;;;;5062048;28;20588;-56
2023/03/28 09:06:16;;;;;;;12.93;4.03;;;8.10;99.90;;;;;;5059753;28;20216;-55
2023/03/28 09:08:59;;;;;;;5.50;3.67;;;8.50;99.90;;;;;;5068616;28;20228;-56
2023/03/28 09:11:37;;;;;;;9.73;3.97;;;8.60;99.90;;;;;;5069059;28;20265;-55
2023/03/28 09:14:37;;;;;;;6.70;4.57;;;8.30;99.90;;;;;;5063952;28;20245;-56
2023/03/28 09:17:11;;;;;;;12.10;4.70;;;7.90;99.90;;;;;;5061347;28;20228;-56
2023/03/28 09:19:54;;;;;;;7.53;4.13;;;7.60;99.90;;;;;;5062425;28;20644;-55
2023/03/28 09:22:38;;;;;;;14.63;4.60;;;7.50;99.90;;;;;;5065230;28;20651;-56
2023/03/28 09:25:23;;;;;;;9.10;4.47;;;7.80;99.90;;;;;;5086259;28;20215;-56
2023/03/28 09:27:59;;;;;;;7.20;4.40;;;8.60;99.90;;;;;;5089225;28;20566;-56
2023/03/28 09:30:30;;;;;;;9.03;3.90;;;9.10;99.90;;;;;;5090223;28;20276;-53
2023/03/28 09:33:03;;;;;;;8.53;4.47;;;9.00;99.90;;;;;;5089245;28;20735;-56
2023/03/28 09:35:32;;;;;;;8.83;4.40;;;8.70;99.90;;;;;;5090667;28;20230;-55
2023/03/28 09:38:03;;;;;;;14.70;4.83;;;8.40;99.90;;;;;;5080791;28;20770;-55
2023/03/28 09:40:35;;;;;;;13.57;5.27;;;8.80;99.90;;;;;;5087174;28;20219;-55
2023/03/28 09:43:15;;;;;;;7.97;4.20;;;8.90;99.90;;;;;;5088743;28;20280;-55
2023/03/28 09:45:57;;;;;;;11.57;5.00;;;9.00;99.90;;;;;;5088812;28;20211;-55
2023/03/28 09:48:28;;;;;;;14.33;5.57;;;8.90;99.90;;;;;;5088923;28;20311;-55
2023/03/28 09:50:57;;;;;;;10.87;4.87;;;8.80;99.90;;;;;;5089995;28;20276;-55
2023/03/28 09:53:28;;;;;;;13.27;5.00;;;8.90;99.90;;;;;;5089773;28;20704;-55
2023/03/28 09:56:05;;;;;;;10.70;5.03;;;8.80;99.90;;;;;;5091651;28;20254;-55
2023/03/28 09:58:52;;;;;;;9.67;4.90;;;8.70;99.90;;;;;;5089624;28;20184;-54
2023/03/28 10:01:26;;;;;;;12.63;5.30;;;8.60;99.90;;;;;;5088419;28;20192;-55
2023/03/28 10:03:56;;;;;;;8.60;4.70;;;8.60;99.90;;;;;;5074101;28;20656;-55
2023/03/28 10:06:27;;;;;;;11.73;5.27;;;8.70;99.90;;;;;;5090544;28;20220;-55
2023/03/28 10:09:10;;;;;;;11.73;5.33;;;8.70;99.90;;;;;;5087143;28;20712;-55
2023/03/28 10:11:53;;;;;;;11.23;5.10;;;8.60;99.90;;;;;;5081360;28;20211;-55
2023/03/28 10:14:34;;;;;;;12.23;5.53;;;8.50;99.90;;;;;;5087200;28;20280;-55
2023/03/28 10:17:05;;;;;;;16.37;5.63;;;8.20;99.90;;;;;;5089121;28;20223;-55
2023/03/28 10:19:35;;;;;;;13.47;5.97;;;8.10;99.90;;;;;;5087278;28;20231;-54
2023/03/28 10:22:11;;;;;;;13.00;5.37;;;8.10;99.90;;;;;;5081533;28;20196;-55
2023/03/28 10:24:40;;;;;;;17.83;6.00;;;8.10;99.90;;;;;;5086636;28;20246;-56
2023/03/28 10:27:16;;;;;;;14.10;5.50;;;8.00;99.90;;;;;;5089041;28;20269;-54
2023/03/28 10:29:46;;;;;;;11.67;5.47;;;8.10;99.90;;;;;;5081484;28;20226;-54
2023/03/28 10:32:24;;;;;;;9.00;5.03;;;8.40;99.90;;;;;;5086389;28;20301;-56
2023/03/28 10:35:01;;;;;;;8.23;4.03;;;8.80;99.90;;;;;;5078249;28;20218;-54
2023/03/28 10:37:31;;;;;;;11.73;4.40;;;9.10;99.90;;;;;;5085939;28;20195;-53
2023/03/28 10:40:03;;;;;;;8.53;4.63;;;9.50;99.90;;;;;;5092966;28;20222;-55
2023/03/28 10:42:42;;;;;;;10.70;4.80;;;9.60;99.90;;;;;;5079165;28;20215;-55
2023/03/28 10:45:22;;;;;;;8.57;4.63;;;9.50;99.90;;;;;;5064290;28;20219;-56
2023/03/28 10:47:54;;;;;;;10.40;3.93;;;9.40;99.90;;;;;;5055904;28;20694;-56
2023/03/28 10:50:28;;;;;;;9.23;4.80;;;9.40;99.90;;;;;;5061256;28;20804;-54
2023/03/28 10:53:13;;;;;;;6.53;4.00;;;9.50;99.90;;;;;;5063699;28;20219;-55
2023/03/28 10:55:53;;;;;;;6.53;4.07;;;10.00;99.90;;;;;;5067290;28;20279;-56
2023/03/28 10:58:30;;;;;;;9.80;4.53;;;10.50;99.90;;;;;;5063220;28;20196;-55
2023/03/28 11:01:05;;;;;;;11.37;3.80;;;10.70;99.90;;;;;;5062995;28;20231;-56
2023/03/28 11:03:45;;;;;;;12.27;4.97;;;10.10;99.90;;;;;;5063290;28;20215;-56
2023/03/28 11:06:19;;;;;;;8.23;4.53;;;9.90;99.90;;;;;;5063891;28;20310;-56
2023/03/28 11:09:02;;;;;;;9.90;5.10;;;9.60;99.90;;;;;;5065988;28;20224;-55
2023/03/28 11:11:43;;;;;;;12.43;4.80;;;9.60;99.90;;;;;;5065887;28;20837;-56
2023/03/28 11:14:23;;;;;;;7.77;4.20;;;9.60;99.90;;;;;;5062276;28;20250;-56
2023/03/28 11:16:58;;;;;;;9.13;4.23;;;9.80;99.90;;;;;;5069310;28;20220;-56
2023/03/28 11:19:42;;;;;;;9.27;3.50;;;10.00;99.90;;;;;;5071847;28;20216;-54
2023/03/28 11:22:21;;;;;;;6.47;3.50;;;10.30;99.90;;;;;;5069923;28;20277;-55
2023/03/28 11:24:58;;;;;;;7.30;3.77;;;10.90;99.90;;;;;;5072838;28;20250;-56
2023/03/28 11:27:35;;;;;;;5.77;3.27;;;11.40;99.90;;;;;;5072783;28;20243;-56
2023/03/28 11:30:14;;;;;;;5.07;3.20;;;12.00;99.90;;;;;;5063049;28;20585;-56
2023/03/28 11:32:48;;;;;;;5.00;3.40;;;12.20;99.90;;;;;;5065738;28;20759;-56
2023/03/28 11:35:26;;;;;;;3.43;2.87;;;12.10;99.90;;;;;;5072779;28;20224;-56
2023/03/28 11:38:01;;;;;;;7.43;3.00;;;11.80;99.90;;;;;;5069762;28;20243;-56
2023/03/28 11:40:35;;;;;;;3.47;2.93;;;11.30;99.90;;;;;;5068652;28;20696;-55
2023/03/28 11:43:06;;;;;;;9.03;3.17;;;10.90;99.90;;;;;;5064456;28;20203;-57
2023/03/28 11:45:39;;;;;;;4.27;3.03;;;10.60;99.90;;;;;;5065562;28;20621;-56
2023/03/28 11:48:25;;;;;;;4.23;3.00;;;10.70;99.90;;;;;;5062543;28;20212;-56
2023/03/28 11:51:02;;;;;;;4.87;2.70;;;10.70;99.90;;;;;;5067877;28;20215;-55
2023/03/28 11:53:37;;;;;;;4.90;3.03;;;10.60;99.90;;;;;;5077936;28;20218;-55
2023/03/28 11:56:11;;;;;;;4.77;3.00;;;10.50;99.90;;;;;;5089605;28;20275;-56
2023/03/28 11:58:41;;;;;;;7.33;3.27;;;10.60;99.90;;;;;;5090450;28;20179;-57
2023/03/28 12:01:15;;;;;;;6.43;3.27;;;11.00;99.90;;;;;;5088789;28;20219;-56
2023/03/28 12:03:54;;;;;;;3.93;3.50;;;11.20;99.90;;;;;;5081280;28;20215;-56
2023/03/28 12:06:30;;;;;;;5.43;3.30;;;11.30;99.90;;;;;;5090459;28;20610;-56
2023/03/28 12:09:05;;;;;;;3.40;3.10;;;11.40;99.90;;;;;;5084456;28;20322;-56
2023/03/28 12:11:41;;;;;;;8.83;3.23;;;11.40;99.90;;;;;;5092462;28;20219;-56
2023/03/28 12:14:34;;;;;;;6.53;3.20;;;11.50;99.90;;;;;;5090674;28;20261;-56
2023/03/28 12:17:15;;;;;;;5.40;3.03;;;11.60;99.90;;;;;;5087739;28;20223;-56
2023/03/28 12:19:47;;;;;;;4.30;2.97;;;11.30;99.90;;;;;;5086476;28;20216;-56
2023/03/28 12:22:22;;;;;;;6.70;3.20;;;11.10;99.90;;;;;;5070049;28;20305;-56
2023/03/28 12:24:57;;;;;;;5.53;3.00;;;10.90;99.90;;;;;;5074794;28;20272;-56
2023/03/28 12:27:37;;;;;;;8.47;3.27;;;10.80;99.90;;;;;;5069294;28;20273;-56
2023/03/28 12:30:15;;;;;;;6.70;3.20;;;10.70;99.90;;;;;;5073394;28;20220;-57
2023/03/28 12:32:50;;;;;;;3.53;3.23;;;10.70;99.90;;;;;;5080581;28;20739;-56
2023/03/28 12:35:23;;;;;;;3.80;2.90;;;10.90;99.90;;;;;;5071562;28;20309;-56
2023/03/28 12:38:13;;;;;;;8.63;3.50;;;11.10;99.90;;;;;;5070691;28;20702;-56
2023/03/28 12:40:52;;;;;;;7.10;3.27;;;11.10;99.90;;;;;;5072524;28;20208;-56
2023/03/28 12:43:24;;;;;;;7.47;3.57;;;11.10;99.90;;;;;;5072990;28;20184;-56
2023/03/28 12:45:59;;;;;;;5.20;3.40;;;11.20;99.90;;;;;;5062810;28;20225;-56
2023/03/28 12:48:35;;;;;;;6.67;3.17;;;11.20;99.90;;;;;;5071734;28;20223;-56
2023/03/28 12:51:10;;;;;;;6.17;4.67;;;11.10;99.90;;;;;;5070512;28;20223;-56
2023/03/28 12:53:45;;;;;;;4.77;3.43;;;11.20;99.90;;;;;;5068578;28;20345;-56
2023/03/28 12:56:15;;;;;;;3.57;3.20;;;11.10;99.90;;;;;;5064081;28;20574;-56
2023/03/28 12:58:47;;;;;;;5.40;3.30;;;10.80;99.90;;;;;;5074971;28;20195;-56
2023/03/28 13:01:35;;;;;;;4.57;2.97;;;10.80;99.90;;;;;;5072409;28;20184;-57
2023/03/28 13:04:21;;;;;;;3.73;3.17;;;10.90;99.90;;;;;;5096893;28;20245;-56
2023/03/28 13:07:02;;;;;;;5.83;3.50;;;11.30;99.90;;;;;;5087981;28;20234;-56
2023/03/28 13:09:42;;;;;;;5.03;3.10;;;11.60;99.90;;;;;;5092301;28;20659;-56
2023/03/28 13:12:25;;;;;;;6.13;2.90;;;11.60;99.90;;;;;;5092280;28;20272;-56
2023/03/28 13:15:00;;;;;;;7.27;3.33;;;11.40;99.90;;;;;;5082017;28;20215;-56